Terminal Aerodrome Forecast
Issued by NWS

Home | Current Version | Previous Version | Graphics & Text | Print | Product List | Glossary On
Versions: 1 2 3 4 5 6 7 8 9 10 11 12 13 14 15 16 17 18 19 20 21 22
169
FTUS42 KMHX 231139
TAFPGV
TAF
KPGV 231139Z 2312/2412 12005KT P6SM VCSH OVC006
     FM231430 22007KT P6SM SCT015 BKN080
     FM231800 24007KT P6SM VCSH BKN035
     FM240000 30008KT P6SM OVC010
      AMD LTD TO CLD VIS AND WIND=

USA.gov is the U.S. government's official web portal to all federal, state and local government web resources and services.